Time;durP1;ratioP1;P1;durP2;ratioP2;P2;SDS_P1;SDS_P2;PMS_P1;PMS_P2;Temp;Humidity;BMP_temperature;BMP_pressure;BME280_temperature;BME280_humidity;BME280_pressure;Samples;Min_cycle;Max_cycle;Signal;HPM_P1;HPM_P2
2023/09/25 03:42:29;;;;;;;;;;;;;;;10.46;72.64;100605.03;1090490;46;1754;-80
2023/09/25 03:43:31;;;;;;;;;;;;;;;10.43;72.92;100603.47;1087900;54;1086;-81
2023/09/25 03:44:34;;;;;;;;;;;;;;;10.30;73.01;100605.44;1088101;46;1122;-81
2023/09/25 03:45:35;;;;;;;;;;;;;;;10.35;72.62;100610.41;1088221;54;1043;-81
2023/09/25 03:46:38;;;;;;;;;;;;;;;10.38;72.62;100602.16;1088220;47;948;-81
2023/09/25 03:47:39;;;;;;;;;;;;;;;10.36;73.04;100599.59;1088190;54;1003;-81
2023/09/25 03:48:43;;;;;;;;;;;;;;;10.32;73.01;100597.31;1088113;54;1102;-81
2023/09/25 03:49:44;;;;;;;;;;;;;;;10.27;73.31;100597.69;1087964;54;1394;-82
2023/09/25 03:50:47;;;;;;;;;;;;;;;10.30;73.31;100592.94;1088281;54;946;-81
2023/09/25 03:51:48;;;;;;;;;;;;;;;10.33;73.10;100597.16;1088175;54;1856;-80
2023/09/25 03:52:51;;;;;;;;;;;;;;;10.25;73.17;100591.63;1087940;47;1381;-83
2023/09/25 03:53:54;;;;;;;;;;;;;;;10.19;73.19;100594.84;1088125;46;904;-81
2023/09/25 03:54:58;;;;;;;;;;;;;;;10.17;73.37;100596.78;1088002;47;1083;-81
2023/09/25 03:56:01;;;;;;;;;;;;;;;10.21;73.20;100590.19;1088245;47;977;-81
2023/09/25 03:57:05;;;;;;;;;;;;;;;10.26;73.18;100601.34;1088109;54;1002;-81
2023/09/25 03:58:08;;;;;;;;;;;;;;;10.28;73.23;100597.56;1088026;47;1071;-82
2023/09/25 03:59:13;;;;;;;;;;;;;;;10.32;72.58;100595.47;1088227;54;999;-81
2023/09/25 04:00:21;;;;;;;;;;;;;;;10.37;72.65;100601.31;1087975;54;1000;-80
2023/09/25 04:01:25;;;;;;;;;;;;;;;10.36;72.44;100599.59;1088059;47;1293;-81
2023/09/25 04:02:27;;;;;;;;;;;;;;;10.39;72.43;100601.19;1087904;54;1094;-81
2023/09/25 04:03:30;;;;;;;;;;;;;;;10.36;72.63;100593.38;1088204;54;1035;-82
2023/09/25 04:04:31;;;;;;;;;;;;;;;10.38;72.51;100596.81;1088150;54;1098;-81
2023/09/25 04:05:35;;;;;;;;;;;;;;;10.38;72.29;100596.81;1088151;54;1110;-80
2023/09/25 04:06:51;;;;;;;;;;;;;;;10.34;72.73;100596.19;1088129;47;998;-81
2023/09/25 04:07:55;;;;;;;;;;;;;;;10.32;72.72;100602.66;1088248;47;1407;-81
2023/09/25 04:08:57;;;;;;;;;;;;;;;10.36;72.76;100598.72;1088529;47;1119;-82
2023/09/25 04:10:15;;;;;;;;;;;;;;;10.37;72.78;100595.97;1088215;54;1059;-82
2023/09/25 04:18:42;;;;;;;;;;;;;;;10.09;73.63;100600.09;1088588;54;1905;-80
2023/09/25 04:20:17;;;;;;;;;;;;;;;9.95;74.43;100601.22;1088112;47;855;-81
2023/09/25 04:21:23;;;;;;;;;;;;;;;9.79;74.82;100602.50;1088422;47;1370;-80
2023/09/25 04:22:25;;;;;;;;;;;;;;;9.75;75.10;100602.88;1088481;47;946;-80
2023/09/25 04:23:29;;;;;;;;;;;;;;;9.73;75.12;100603.00;1088349;47;1031;-82
2023/09/25 04:24:30;;;;;;;;;;;;;;;9.76;74.90;100604.59;1088455;54;1113;-81
2023/09/25 04:25:33;;;;;;;;;;;;;;;9.72;74.77;100604.00;1088375;47;942;-82
2023/09/25 04:26:34;;;;;;;;;;;;;;;9.65;75.24;100608.97;1087897;47;1058;-82
2023/09/25 04:27:35;;;;;;;;;;;;;;;9.63;75.43;100604.75;1087956;47;1142;-81
2023/09/25 04:28:46;;;;;;;;;;;;;;;9.58;75.58;100610.47;1087813;54;1050;-81
2023/09/25 04:29:46;;;;;;;;;;;;;;;9.59;75.39;100605.94;1087980;46;1328;-82
2023/09/25 04:30:51;;;;;;;;;;;;;;;9.57;75.41;100603.41;1087907;54;1134;-82
2023/09/25 04:31:52;;;;;;;;;;;;;;;9.48;75.57;100612.16;1087741;54;1872;-82
2023/09/25 04:32:56;;;;;;;;;;;;;;;9.43;75.52;100607.22;1087963;54;980;-82
2023/09/25 04:33:57;;;;;;;;;;;;;;;9.42;75.80;100604.63;1087934;54;975;-82
2023/09/25 04:34:58;;;;;;;;;;;;;;;9.42;75.52;100613.50;1087858;54;1005;-81
2023/09/25 04:36:10;;;;;;;;;;;;;;;9.40;75.71;100623.44;1087940;47;972;-81
2023/09/25 04:37:13;;;;;;;;;;;;;;;9.43;75.63;100614.34;1088173;47;957;-82
2023/09/25 04:38:17;;;;;;;;;;;;;;;9.42;75.55;100620.66;1087704;54;1047;-82
2023/09/25 04:40:51;;;;;;;;;;;;;;;9.35;76.04;100609.66;1088243;47;843;-81
2023/09/25 04:41:51;;;;;;;;;;;;;;;9.34;75.88;100618.63;1087914;47;1223;-82
2023/09/25 04:42:56;;;;;;;;;;;;;;;9.29;76.11;100616.31;1087968;54;889;-81
2023/09/25 04:43:57;;;;;;;;;;;;;;;9.25;76.34;100611.34;1087786;47;969;-81
2023/09/25 04:44:58;;;;;;;;;;;;;;;9.29;76.08;100613.66;1087988;47;1047;-81
2023/09/25 04:46:01;;;;;;;;;;;;;;;9.28;76.38;100619.09;1087836;54;1092;-81
2023/09/25 04:47:02;;;;;;;;;;;;;;;9.22;76.53;100612.41;1087855;54;1005;-82
2023/09/25 04:48:05;;;;;;;;;;;;;;;9.21;76.63;100614.25;1087673;47;992;-82
2023/09/25 04:49:11;;;;;;;;;;;;;;;9.24;76.46;100612.31;1088040;47;1006;-82
2023/09/25 04:50:16;;;;;;;;;;;;;;;9.26;76.40;100615.72;1087874;54;1061;-81
2023/09/25 04:51:17;;;;;;;;;;;;;;;9.26;76.40;100610.38;1087853;54;925;-83
2023/09/25 04:52:28;;;;;;;;;;;;;;;9.26;76.09;100613.06;1087728;47;1850;-81
2023/09/25 04:53:32;;;;;;;;;;;;;;;9.32;76.22;100612.56;1087908;47;1321;-82
2023/09/25 04:54:37;;;;;;;;;;;;;;;9.30;75.96;100611.81;1087752;54;1119;-82
2023/09/25 04:55:38;;;;;;;;;;;;;;;9.28;75.98;100608.41;1087965;54;1098;-81
2023/09/25 04:56:41;;;;;;;;;;;;;;;9.26;76.18;100608.56;1087829;54;1111;-82
2023/09/25 04:57:43;;;;;;;;;;;;;;;9.34;76.14;100610.63;1087724;47;1146;-82
2023/09/25 04:58:50;;;;;;;;;;;;;;;9.30;75.87;100614.50;1087797;47;1075;-82
2023/09/25 04:59:51;;;;;;;;;;;;;;;9.34;75.87;100613.28;1087711;47;1091;-82
2023/09/25 05:00:56;;;;;;;;;;;;;;;9.34;75.86;100607.94;1087805;54;1088;-82
2023/09/25 05:01:58;;;;;;;;;;;;;;;9.30;76.15;100614.50;1087716;54;1371;-82
2023/09/25 05:03:02;;;;;;;;;;;;;;;9.33;75.81;100615.09;1087795;54;1427;-80
2023/09/25 05:04:03;;;;;;;;;;;;;;;9.35;75.56;100609.66;1087674;54;1324;-82
2023/09/25 05:05:04;;;;;;;;;;;;;;;9.31;75.62;100618.84;1087716;54;994;-81
2023/09/25 05:06:08;;;;;;;;;;;;;;;9.34;75.90;100614.13;1088026;54;1011;-81
2023/09/25 05:07:08;;;;;;;;;;;;;;;9.43;75.70;100617.88;1088377;47;1623;-81
2023/09/25 05:08:15;;;;;;;;;;;;;;;9.50;75.12;100616.41;1088320;54;1185;-82
2023/09/25 05:09:15;;;;;;;;;;;;;;;9.52;74.85;100610.94;1088146;47;1137;-81
2023/09/25 05:10:17;;;;;;;;;;;;;;;9.55;75.09;100615.16;1088140;54;988;-81
2023/09/25 05:11:23;;;;;;;;;;;;;;;9.59;74.97;100627.31;1088131;54;1302;-80
2023/09/25 05:12:24;;;;;;;;;;;;;;;9.65;74.49;100618.78;1088329;47;1846;-82
2023/09/25 05:13:27;;;;;;;;;;;;;;;9.65;74.59;100626.81;1088530;54;1025;-81
2023/09/25 05:14:29;;;;;;;;;;;;;;;9.59;74.76;100621.97;1088406;54;1413;-81
2023/09/25 05:15:38;;;;;;;;;;;;;;;9.49;75.01;100622.72;1088308;54;1275;-82
2023/09/25 05:16:55;;;;;;;;;;;;;;;9.49;75.32;100633.38;1088425;46;1004;-81
2023/09/25 05:17:58;;;;;;;;;;;;;;;9.49;75.14;100625.38;1088310;54;974;-81
2023/09/25 05:18:59;;;;;;;;;;;;;;;9.46;75.11;100628.28;1087984;47;1176;-82
2023/09/25 15:50:59;;;;;;;;;;;;;;;22.75;39.41;100381.47;1087816;46;1150;-82
2023/09/25 16:22:48;;;;;;;;;;;;;;;22.50;40.20;100387.66;1088174;54;1650;-81
2023/09/25 16:24:26;;;;;;;;;;;;;;;22.44;40.12;100393.97;1087916;47;1856;-84
2023/09/25 16:25:32;;;;;;;;;;;;;;;22.37;39.93;100395.84;1088132;47;981;-82
2023/09/25 16:26:36;;;;;;;;;;;;;;;22.43;40.10;100397.72;1088319;47;1090;-85
2023/09/25 16:50:39;;;;;;;;;;;;;;;22.28;41.21;100404.25;1088053;54;1147;-84
2023/09/25 17:20:19;;;;;;;;;;;;;;;21.48;44.20;100407.88;1087452;54;793;-81
2023/09/25 17:21:20;;;;;;;;;;;;;;;21.44;44.12;100405.78;1087098;54;1137;-80
2023/09/25 17:22:26;;;;;;;;;;;;;;;21.42;44.54;100403.25;1086572;54;1389;-80
2023/09/25 17:23:30;;;;;;;;;;;;;;;21.43;44.47;100406.81;1086780;47;1090;-82
2023/09/25 17:24:45;;;;;;;;;;;;;;;21.40;44.92;100409.94;1086828;54;1852;-81
2023/09/25 17:25:47;;;;;;;;;;;;;;;21.32;45.01;100416.41;1086903;47;1250;-81
2023/09/25 17:26:58;;;;;;;;;;;;;;;21.26;45.11;100409.91;1087131;47;1454;-82
2023/09/25 17:28:05;;;;;;;;;;;;;;;21.28;45.04;100413.25;1086997;47;1087;-81
2023/09/25 17:29:09;;;;;;;;;;;;;;;21.18;45.66;100413.69;1088066;47;946;-81
2023/09/25 17:30:25;;;;;;;;;;;;;;;21.17;45.78;100422.00;1087431;54;1121;-79
2023/09/25 17:31:34;;;;;;;;;;;;;;;21.06;46.51;100417.19;1087633;47;1365;-81
2023/09/25 17:32:59;;;;;;;;;;;;;;;20.92;46.77;100414.44;1086940;54;1182;-79
2023/09/25 17:34:14;;;;;;;;;;;;;;;20.81;47.25;100418.59;1087441;47;959;-83
2023/09/25 17:35:20;;;;;;;;;;;;;;;20.77;47.36;100422.75;1087016;54;1106;-81
2023/09/25 18:03:42;;;;;;;;;;;;;;;19.95;49.73;100461.28;1069061;54;2100;-82
2023/09/25 18:04:46;;;;;;;;;;;;;;;19.92;49.91;100447.28;1085825;47;1845;-81
2023/09/25 18:05:49;;;;;;;;;;;;;;;19.88;50.08;100463.13;1086094;54;1191;-81
2023/09/25 18:06:50;;;;;;;;;;;;;;;19.84;50.46;100460.97;1087529;47;1145;-80
2023/09/25 18:07:52;;;;;;;;;;;;;;;19.79;50.51;100456.94;1087011;54;1125;-82
2023/09/25 18:09:05;;;;;;;;;;;;;;;19.75;50.47;100458.38;1087170;54;1043;-80
2023/09/25 18:10:06;;;;;;;;;;;;;;;19.73;50.13;100456.88;1086843;54;1087;-81
2023/09/25 18:11:18;;;;;;;;;;;;;;;19.72;50.88;100456.06;1086597;54;956;-82
2023/09/25 18:12:25;;;;;;;;;;;;;;;19.69;50.95;100459.16;1086951;54;1656;-80
2023/09/25 18:13:28;;;;;;;;;;;;;;;19.68;50.92;100460.19;1086871;47;1087;-82
2023/09/25 18:14:38;;;;;;;;;;;;;;;19.63;51.19;100458.06;1086855;47;1118;-81
2023/09/25 18:15:44;;;;;;;;;;;;;;;19.69;50.55;100461.88;1086571;54;1123;-81
2023/09/25 18:16:56;;;;;;;;;;;;;;;19.69;50.98;100453.72;1085558;54;1617;-80
2023/09/25 18:18:04;;;;;;;;;;;;;;;19.70;50.52;100454.56;1086733;54;1121;-81
2023/09/25 18:19:20;;;;;;;;;;;;;;;19.70;50.35;100451.84;1086389;54;1181;-80
2023/09/25 18:20:28;;;;;;;;;;;;;;;19.70;50.77;100449.13;1084327;47;1471;-78
2023/09/25 18:21:29;;;;;;;;;;;;;;;19.67;50.61;100455.78;1084513;54;1302;-79
2023/09/25 18:22:34;;;;;;;;;;;;;;;19.66;50.56;100448.69;1086800;47;1489;-82
2023/09/25 18:23:46;;;;;;;;;;;;;;;19.63;50.72;100459.94;1086678;54;1122;-80
2023/09/25 18:24:50;;;;;;;;;;;;;;;19.60;50.44;100458.44;1087842;54;1856;-83
2023/09/25 18:27:29;;;;;;;;;;;;;;;19.55;50.80;100454.66;1088289;47;928;-80
2023/09/25 18:30:23;;;;;;;;;;;;;;;19.46;50.91;100451.22;1088350;47;892;-81
2023/09/25 19:06:54;;;;;;;;;;;;;;;18.77;53.61;100461.47;1087841;54;821;-81
2023/09/25 19:07:55;;;;;;;;;;;;;;;18.78;53.28;100459.59;1088216;47;983;-82
2023/09/25 19:08:59;;;;;;;;;;;;;;;18.80;52.96;100454.84;1088297;54;1082;-81
2023/09/25 19:10:14;;;;;;;;;;;;;;;18.82;53.03;100459.03;1087444;54;1193;-80
2023/09/25 19:11:17;;;;;;;;;;;;;;;18.82;52.95;100464.44;1087671;54;1095;-80
2023/09/25 19:12:23;;;;;;;;;;;;;;;18.83;52.93;100462.59;1087767;47;1335;-80
2023/09/25 19:13:29;;;;;;;;;;;;;;;18.77;54.06;100457.91;1087930;47;1659;-81
2023/09/25 19:14:30;;;;;;;;;;;;;;;18.72;54.16;100469.31;1087636;54;1122;-81
2023/09/25 19:15:33;;;;;;;;;;;;;;;18.67;54.19;100467.16;1088257;54;1002;-79
2023/09/25 19:16:35;;;;;;;;;;;;;;;18.64;54.21;100464.00;1087229;46;1179;-80
2023/09/25 19:17:45;;;;;;;;;;;;;;;18.66;53.80;100470.06;1086398;46;1087;-80
2023/09/25 19:18:46;;;;;;;;;;;;;;;18.62;54.44;100466.03;1087661;54;1165;-80
2023/09/25 19:19:55;;;;;;;;;;;;;;;18.59;54.53;100469.16;1087348;54;1071;-79
2023/09/25 19:21:18;;;;;;;;;;;;;;;18.64;54.37;100466.69;1087345;54;1082;-81
2023/09/25 19:22:25;;;;;;;;;;;;;;;18.66;54.24;100475.47;1087448;46;1323;-80
2023/09/25 19:23:25;;;;;;;;;;;;;;;18.63;55.33;100479.41;1088012;47;1095;-79
2023/09/25 19:24:43;;;;;;;;;;;;;;;18.61;55.30;100475.22;1087593;54;1842;-81
2023/09/25 19:25:47;;;;;;;;;;;;;;;18.58;55.17;100483.72;1087666;54;1073;-80
2023/09/25 19:26:51;;;;;;;;;;;;;;;18.57;55.47;100482.84;1087506;54;1123;-79
2023/09/25 19:27:52;;;;;;;;;;;;;;;18.57;55.39;100482.84;1087484;47;1019;-81
2023/09/25 19:28:56;;;;;;;;;;;;;;;18.54;55.25;100488.66;1087334;54;1131;-78
2023/09/25 19:30:11;;;;;;;;;;;;;;;18.52;55.26;100486.13;1087804;54;1067;-81
2023/09/25 19:31:14;;;;;;;;;;;;;;;18.52;55.23;100490.72;1087969;54;1006;-82
2023/09/25 19:32:26;;;;;;;;;;;;;;;18.50;55.76;100477.38;1087269;47;1346;-80
2023/09/25 19:33:33;;;;;;;;;;;;;;;18.52;55.32;100485.28;1088246;54;1212;-80
2023/09/25 19:34:38;;;;;;;;;;;;;;;18.51;55.56;100484.47;1088048;54;1153;-82
2023/09/25 19:37:20;;;;;;;;;;;;;;;18.37;56.81;100493.41;1088764;47;929;-80
2023/09/25 19:38:24;;;;;;;;;;;;;;;18.33;57.54;100487.53;1088592;54;951;-82
2023/09/25 19:39:40;;;;;;;;;;;;;;;18.24;57.64;100489.47;1088425;54;1052;-82
2023/09/25 19:40:41;;;;;;;;;;;;;;;18.21;58.12;100484.44;1088622;46;956;-82
2023/09/25 19:42:07;;;;;;;;;;;;;;;18.18;57.64;100494.78;1088565;54;1462;-83
2023/09/25 19:43:08;;;;;;;;;;;;;;;18.11;57.70;100489.28;1088594;54;955;-84
2023/09/25 19:44:12;;;;;;;;;;;;;;;18.12;57.88;100490.94;1088721;54;1182;-83
2023/09/25 19:45:23;;;;;;;;;;;;;;;18.10;57.86;100487.59;1088571;47;940;-81
2023/09/25 19:46:28;;;;;;;;;;;;;;;18.09;58.66;100485.91;1088534;47;927;-83
2023/09/25 19:47:33;;;;;;;;;;;;;;;18.08;57.92;100486.91;1088448;47;937;-82
2023/09/25 19:48:37;;;;;;;;;;;;;;;18.06;58.35;100487.09;1088287;54;1094;-81
2023/09/25 19:51:28;;;;;;;;;;;;;;;18.02;58.16;100480.38;1088492;47;993;-81
2023/09/25 19:52:33;;;;;;;;;;;;;;;18.04;57.46;100480.22;1088529;47;1668;-81
2023/09/25 19:54:00;;;;;;;;;;;;;;;17.97;58.95;100484.66;1088497;47;1017;-80
2023/09/25 19:55:29;;;;;;;;;;;;;;;17.97;58.40;100482.81;1088134;47;901;-79
2023/09/25 19:58:08;;;;;;;;;;;;;;;17.95;57.80;100478.56;1088421;47;857;-83
2023/09/25 19:59:08;;;;;;;;;;;;;;;17.95;57.68;100483.97;1088578;54;1119;-82
2023/09/25 20:01:43;;;;;;;;;;;;;;;17.93;57.50;100468.78;1088303;47;1337;-82
2023/09/25 20:02:43;;;;;;;;;;;;;;;17.93;57.78;100479.59;1088319;54;1095;-81
2023/09/25 20:03:47;;;;;;;;;;;;;;;17.89;57.83;100480.97;1088535;54;1067;-81
2023/09/25 20:04:49;;;;;;;;;;;;;;;17.86;57.99;100475.91;1088474;54;1869;-82
2023/09/25 20:05:55;;;;;;;;;;;;;;;17.84;58.55;100486.09;1088399;54;1106;-81
2023/09/25 20:07:13;;;;;;;;;;;;;;;17.85;58.51;100484.22;1088490;47;956;-83
2023/09/25 20:08:19;;;;;;;;;;;;;;;17.81;58.65;100474.78;1088498;54;1033;-81
2023/09/25 20:09:24;;;;;;;;;;;;;;;17.77;59.04;100482.41;1088540;54;1022;-83
2023/09/25 20:10:49;;;;;;;;;;;;;;;17.73;59.07;100475.72;1088423;54;948;-83
2023/09/25 20:11:59;;;;;;;;;;;;;;;17.67;59.11;100479.13;1088436;47;1276;-84
2023/09/25 20:13:27;;;;;;;;;;;;;;;17.67;59.67;100481.81;1087743;54;1005;-81
2023/09/25 20:14:41;;;;;;;;;;;;;;;17.70;59.77;100481.47;1088457;46;1048;-82
2023/09/25 20:15:43;;;;;;;;;;;;;;;17.64;60.26;100493.00;1088467;54;1107;-82
2023/09/25 20:16:46;;;;;;;;;;;;;;;17.49;60.58;100485.66;1088290;54;1203;-80
2023/09/25 20:17:47;;;;;;;;;;;;;;;17.39;61.49;100491.31;1087815;54;1016;-82
2023/09/25 20:18:50;;;;;;;;;;;;;;;17.33;61.49;100491.19;1087822;47;1166;-80
2023/09/25 20:19:54;;;;;;;;;;;;;;;17.26;61.76;100499.16;1088464;54;1033;-80
2023/09/25 21:13:27;;;;;;;;;;;;;;;16.51;66.17;100487.81;1086608;54;2293;-83
2023/09/25 21:14:33;;;;;;;;;;;;;;;16.43;66.94;100490.53;1087827;46;1116;-81
2023/09/25 21:15:44;;;;;;;;;;;;;;;16.38;67.08;100489.19;1087411;54;1484;-80
2023/09/25 21:16:47;;;;;;;;;;;;;;;16.38;66.17;100489.19;1088558;54;1034;-82
2023/09/25 21:52:55;;;;;;;;;;;;;;;15.57;70.03;100491.72;1088370;54;1024;-84
2023/09/25 21:54:07;;;;;;;;;;;;;;;15.57;69.50;100485.50;1088544;47;1126;-84
2023/09/25 21:55:09;;;;;;;;;;;;;;;15.57;69.42;100480.13;1088395;47;1031;-82
2023/09/25 21:56:12;;;;;;;;;;;;;;;15.58;69.37;100477.25;1088501;54;1105;-84
2023/09/25 21:57:15;;;;;;;;;;;;;;;15.51;69.53;100481.63;1088507;47;900;-82
2023/09/25 21:58:20;;;;;;;;;;;;;;;15.53;69.24;100485.00;1088520;54;1103;-81
2023/09/25 21:59:23;;;;;;;;;;;;;;;15.52;69.29;100482.44;1088464;47;1005;-82
2023/09/25 22:00:32;;;;;;;;;;;;;;;15.51;69.58;100484.31;1088465;54;1210;-82
2023/09/25 22:01:38;;;;;;;;;;;;;;;15.49;69.61;100482.81;1088256;54;1515;-82
2023/09/25 22:02:44;;;;;;;;;;;;;;;15.49;69.77;100480.13;1088449;47;967;-83
2023/09/25 22:03:45;;;;;;;;;;;;;;;15.52;69.09;100483.31;1088673;54;1090;-81
2023/09/25 22:04:54;;;;;;;;;;;;;;;15.55;68.87;100479.44;1088654;54;1863;-84
2023/09/25 22:05:55;;;;;;;;;;;;;;;15.55;68.90;100476.75;1088821;54;1047;-84
2023/09/25 22:07:05;;;;;;;;;;;;;;;15.55;68.50;100480.25;1088864;54;979;-83
2023/09/25 22:08:11;;;;;;;;;;;;;;;15.52;68.87;100475.22;1088769;54;868;-83
2023/09/25 22:09:16;;;;;;;;;;;;;;;15.47;69.30;100477.56;1088811;54;894;-81
2023/09/25 22:10:19;;;;;;;;;;;;;;;15.44;69.52;100475.22;1088755;54;1153;-85
2023/09/25 22:11:22;;;;;;;;;;;;;;;15.42;69.64;100483.44;1088814;54;1086;-84
2023/09/25 22:12:25;;;;;;;;;;;;;;;15.43;69.31;100479.75;1088818;54;1333;-83
2023/09/25 22:13:43;;;;;;;;;;;;;;;15.42;69.22;100478.06;1088837;54;1035;-82
2023/09/25 22:15:00;;;;;;;;;;;;;;;15.38;69.86;100481.25;1088837;54;990;-83
2023/09/25 22:16:09;;;;;;;;;;;;;;;15.34;69.80;100475.34;1088708;54;1063;-85
2023/09/25 22:17:11;;;;;;;;;;;;;;;15.34;69.82;100474.53;1089003;46;1015;-85
2023/09/25 22:18:18;;;;;;;;;;;;;;;15.30;70.09;100468.63;1088737;54;1031;-83
2023/09/25 22:19:19;;;;;;;;;;;;;;;15.27;70.11;100471.66;1088579;47;883;-82
2023/09/25 22:20:24;;;;;;;;;;;;;;;15.22;70.40;100472.13;1088644;54;1511;-82
2023/09/25 22:21:27;;;;;;;;;;;;;;;15.22;69.98;100473.97;1088570;47;1329;-81
2023/09/25 22:22:31;;;;;;;;;;;;;;;15.13;70.39;100476.66;1088634;47;958;-83
2023/09/25 22:23:44;;;;;;;;;;;;;;;15.06;70.64;100472.94;1088689;54;1124;-83
2023/09/25 22:59:36;;;;;;;;;;;;;;;14.74;71.20;100484.44;1069526;54;1889;-83
2023/09/25 23:10:53;;;;;;;;;;;;;;;14.80;71.16;100487.31;1072229;54;1966;-83
